Colona, Colorado
Current Conditions -  °F | °C
As of 1:53 AM on Saturday 25 Oct 2014 (Local Time) from KMTJ Reporting Station
Clear Clear  
Wind Chill: 39°   Ceiling: Unl
Heat Index: 43°   Visibility: 10mi
Dew Point: 29°   Wind: 7mph
Humidity: 58%   Direction: 160°SSE
Pressure: 30.33"   Gusts: NA
Location:  38.4027°N, 107.89°W
Report Text: KMTJ 250753Z AUTO 16006KT 10SM CLR 06/M02 A3033 RMK AO2 SLP220 T00611017
Loading
Personal Weather Stations






























Interactive Weather Map
Tropical Storm Tracking
New forecast layout! Learn more

10-Day Weather Forecast

Advertisements
Track Severe Weather on mobile